sensor_id;sensor_type;location;lat;lon;timestamp;P1;durP1;ratioP1;P2;durP2;ratioP2
49310;SDS011;35177;45.900;5.946;2022-10-18T00:00:40;12.63;;;5.90;;
49310;SDS011;35177;45.900;5.946;2022-10-18T00:03:05;8.48;;;5.43;;
49310;SDS011;35177;45.900;5.946;2022-10-18T00:05:31;10.40;;;5.18;;
49310;SDS011;35177;45.900;5.946;2022-10-18T00:07:57;7.55;;;5.40;;
49310;SDS011;35177;45.900;5.946;2022-10-18T00:10:22;7.30;;;5.40;;
49310;SDS011;35177;45.900;5.946;2022-10-18T00:12:48;11.57;;;6.93;;
49310;SDS011;35177;45.900;5.946;2022-10-18T00:15:14;12.60;;;6.55;;
49310;SDS011;35177;45.900;5.946;2022-10-18T00:17:40;7.65;;;6.40;;
49310;SDS011;35177;45.900;5.946;2022-10-18T00:20:05;10.73;;;5.88;;
49310;SDS011;35177;45.900;5.946;2022-10-18T00:22:33;13.73;;;8.20;;
49310;SDS011;35177;45.900;5.946;2022-10-18T00:24:59;10.18;;;7.70;;
49310;SDS011;35177;45.900;5.946;2022-10-18T00:27:24;15.85;;;7.78;;
49310;SDS011;35177;45.900;5.946;2022-10-18T00:29:52;9.75;;;6.75;;
49310;SDS011;35177;45.900;5.946;2022-10-18T00:32:18;14.45;;;6.38;;
49310;SDS011;35177;45.900;5.946;2022-10-18T00:34:43;7.60;;;5.78;;
49310;SDS011;35177;45.900;5.946;2022-10-18T00:37:09;7.53;;;5.35;;
49310;SDS011;35177;45.900;5.946;2022-10-18T00:39:34;10.40;;;5.53;;
49310;SDS011;35177;45.900;5.946;2022-10-18T00:42:00;10.25;;;6.38;;
49310;SDS011;35177;45.900;5.946;2022-10-18T00:46:54;7.50;;;5.45;;
49310;SDS011;35177;45.900;5.946;2022-10-18T00:49:31;11.07;;;4.72;;
49310;SDS011;35177;45.900;5.946;2022-10-18T00:52:02;7.20;;;5.50;;
49310;SDS011;35177;45.900;5.946;2022-10-18T00:54:34;10.05;;;6.32;;
49310;SDS011;35177;45.900;5.946;2022-10-18T00:57:03;9.30;;;6.32;;
49310;SDS011;35177;45.900;5.946;2022-10-18T00:59:30;11.55;;;6.72;;
49310;SDS011;35177;45.900;5.946;2022-10-18T01:01:56;12.45;;;6.78;;
49310;SDS011;35177;45.900;5.946;2022-10-18T01:04:21;15.60;;;7.13;;
49310;SDS011;35177;45.900;5.946;2022-10-18T01:09:27;12.35;;;6.85;;
49310;SDS011;35177;45.900;5.946;2022-10-18T01:17:12;7.15;;;6.10;;
49310;SDS011;35177;45.900;5.946;2022-10-18T01:22:53;12.27;;;6.95;;
49310;SDS011;35177;45.900;5.946;2022-10-18T01:30:47;10.48;;;5.75;;
49310;SDS011;35177;45.900;5.946;2022-10-18T01:33:22;9.82;;;6.65;;
49310;SDS011;35177;45.900;5.946;2022-10-18T01:35:56;10.88;;;5.95;;
49310;SDS011;35177;45.900;5.946;2022-10-18T01:38:27;12.13;;;5.13;;
49310;SDS011;35177;45.900;5.946;2022-10-18T01:40:55;8.50;;;5.00;;
49310;SDS011;35177;45.900;5.946;2022-10-18T01:43:22;10.68;;;5.22;;
49310;SDS011;35177;45.900;5.946;2022-10-18T01:45:49;15.48;;;6.18;;
49310;SDS011;35177;45.900;5.946;2022-10-18T01:48:17;13.15;;;5.85;;
49310;SDS011;35177;45.900;5.946;2022-10-18T01:50:43;10.02;;;6.55;;
49310;SDS011;35177;45.900;5.946;2022-10-18T01:53:24;13.48;;;6.75;;
49310;SDS011;35177;45.900;5.946;2022-10-18T01:55:58;9.80;;;6.65;;
49310;SDS011;35177;45.900;5.946;2022-10-18T01:58:32;13.85;;;6.07;;
49310;SDS011;35177;45.900;5.946;2022-10-18T02:01:07;16.48;;;6.32;;
49310;SDS011;35177;45.900;5.946;2022-10-18T02:03:41;9.63;;;6.50;;
49310;SDS011;35177;45.900;5.946;2022-10-18T02:11:24;18.52;;;4.93;;
49310;SDS011;35177;45.900;5.946;2022-10-18T02:14:02;7.38;;;4.82;;
49310;SDS011;35177;45.900;5.946;2022-10-18T02:16:36;10.50;;;6.25;;
49310;SDS011;35177;45.900;5.946;2022-10-18T02:19:13;13.52;;;7.38;;
49310;SDS011;35177;45.900;5.946;2022-10-18T02:21:42;15.05;;;7.03;;
49310;SDS011;35177;45.900;5.946;2022-10-18T02:24:12;10.50;;;6.85;;
49310;SDS011;35177;45.900;5.946;2022-10-18T02:26:39;18.05;;;6.47;;
49310;SDS011;35177;45.900;5.946;2022-10-18T02:29:05;12.75;;;5.82;;
49310;SDS011;35177;45.900;5.946;2022-10-18T02:31:34;9.82;;;6.05;;
49310;SDS011;35177;45.900;5.946;2022-10-18T02:34:06;8.57;;;5.53;;
49310;SDS011;35177;45.900;5.946;2022-10-18T02:36:44;11.38;;;5.45;;
49310;SDS011;35177;45.900;5.946;2022-10-18T02:39:38;12.15;;;6.68;;
49310;SDS011;35177;45.900;5.946;2022-10-18T02:42:05;7.30;;;5.95;;
49310;SDS011;35177;45.900;5.946;2022-10-18T02:44:35;10.38;;;6.00;;
49310;SDS011;35177;45.900;5.946;2022-10-18T02:47:02;19.23;;;6.80;;
49310;SDS011;35177;45.900;5.946;2022-10-18T02:49:28;13.77;;;6.20;;
49310;SDS011;35177;45.900;5.946;2022-10-18T02:51:53;15.40;;;5.75;;
49310;SDS011;35177;45.900;5.946;2022-10-18T02:54:19;13.18;;;5.60;;
49310;SDS011;35177;45.900;5.946;2022-10-18T02:56:45;7.78;;;5.63;;
49310;SDS011;35177;45.900;5.946;2022-10-18T02:59:10;9.27;;;5.38;;
49310;SDS011;35177;45.900;5.946;2022-10-18T03:01:36;12.68;;;5.97;;
49310;SDS011;35177;45.900;5.946;2022-10-18T03:04:02;10.23;;;6.28;;
49310;SDS011;35177;45.900;5.946;2022-10-18T03:06:29;8.32;;;5.90;;
49310;SDS011;35177;45.900;5.946;2022-10-18T03:08:55;9.93;;;5.45;;
49310;SDS011;35177;45.900;5.946;2022-10-18T03:11:21;13.45;;;5.82;;
49310;SDS011;35177;45.900;5.946;2022-10-18T03:13:46;11.15;;;6.70;;
49310;SDS011;35177;45.900;5.946;2022-10-18T03:16:14;13.32;;;6.60;;
49310;SDS011;35177;45.900;5.946;2022-10-18T03:18:39;8.10;;;5.97;;
49310;SDS011;35177;45.900;5.946;2022-10-18T03:21:05;10.60;;;5.93;;
49310;SDS011;35177;45.900;5.946;2022-10-18T03:23:32;9.98;;;5.25;;
49310;SDS011;35177;45.900;5.946;2022-10-18T03:25:58;10.93;;;6.28;;
49310;SDS011;35177;45.900;5.946;2022-10-18T03:28:23;7.60;;;6.13;;
49310;SDS011;35177;45.900;5.946;2022-10-18T03:30:49;16.38;;;6.85;;
49310;SDS011;35177;45.900;5.946;2022-10-18T03:33:14;8.95;;;6.03;;
49310;SDS011;35177;45.900;5.946;2022-10-18T03:35:41;11.52;;;5.75;;
49310;SDS011;35177;45.900;5.946;2022-10-18T03:38:07;9.30;;;5.28;;
49310;SDS011;35177;45.900;5.946;2022-10-18T03:40:32;11.15;;;6.60;;
49310;SDS011;35177;45.900;5.946;2022-10-18T03:42:58;13.82;;;5.72;;
49310;SDS011;35177;45.900;5.946;2022-10-18T03:45:23;12.55;;;6.55;;
49310;SDS011;35177;45.900;5.946;2022-10-18T03:47:49;8.05;;;4.82;;
49310;SDS011;35177;45.900;5.946;2022-10-18T03:50:14;7.05;;;4.90;;
49310;SDS011;35177;45.900;5.946;2022-10-18T03:52:40;9.45;;;5.70;;
49310;SDS011;35177;45.900;5.946;2022-10-18T03:55:05;6.40;;;5.35;;
49310;SDS011;35177;45.900;5.946;2022-10-18T03:57:31;9.85;;;5.50;;
49310;SDS011;35177;45.900;5.946;2022-10-18T03:59:57;9.88;;;5.63;;
49310;SDS011;35177;45.900;5.946;2022-10-18T04:02:22;14.05;;;6.28;;
49310;SDS011;35177;45.900;5.946;2022-10-18T04:04:48;11.60;;;5.60;;
49310;SDS011;35177;45.900;5.946;2022-10-18T04:07:14;16.27;;;6.55;;
49310;SDS011;35177;45.900;5.946;2022-10-18T04:09:40;10.27;;;6.35;;
49310;SDS011;35177;45.900;5.946;2022-10-18T04:12:05;8.52;;;6.88;;
49310;SDS011;35177;45.900;5.946;2022-10-18T04:14:30;9.75;;;7.50;;
49310;SDS011;35177;45.900;5.946;2022-10-18T04:16:56;14.35;;;7.28;;
49310;SDS011;35177;45.900;5.946;2022-10-18T04:19:21;11.13;;;6.95;;
49310;SDS011;35177;45.900;5.946;2022-10-18T04:21:47;8.95;;;6.90;;
49310;SDS011;35177;45.900;5.946;2022-10-18T04:24:12;15.52;;;5.88;;
49310;SDS011;35177;45.900;5.946;2022-10-18T04:26:41;11.48;;;5.90;;
49310;SDS011;35177;45.900;5.946;2022-10-18T04:29:07;18.88;;;6.80;;
49310;SDS011;35177;45.900;5.946;2022-10-18T04:31:32;9.82;;;6.20;;
49310;SDS011;35177;45.900;5.946;2022-10-18T04:33:58;9.93;;;5.60;;
49310;SDS011;35177;45.900;5.946;2022-10-18T04:36:23;8.65;;;6.47;;
49310;SDS011;35177;45.900;5.946;2022-10-18T04:38:49;8.05;;;5.20;;
49310;SDS011;35177;45.900;5.946;2022-10-18T04:41:14;15.73;;;7.50;;
49310;SDS011;35177;45.900;5.946;2022-10-18T04:43:40;10.45;;;6.22;;
49310;SDS011;35177;45.900;5.946;2022-10-18T04:46:05;6.53;;;5.05;;
49310;SDS011;35177;45.900;5.946;2022-10-18T04:48:31;11.82;;;5.53;;
49310;SDS011;35177;45.900;5.946;2022-10-18T04:50:56;13.18;;;5.88;;
49310;SDS011;35177;45.900;5.946;2022-10-18T04:53:22;11.57;;;5.45;;
49310;SDS011;35177;45.900;5.946;2022-10-18T04:55:48;9.98;;;6.45;;
49310;SDS011;35177;45.900;5.946;2022-10-18T04:58:15;9.80;;;6.80;;
49310;SDS011;35177;45.900;5.946;2022-10-18T05:00:44;23.15;;;7.88;;
49310;SDS011;35177;45.900;5.946;2022-10-18T05:03:10;12.35;;;8.00;;
49310;SDS011;35177;45.900;5.946;2022-10-18T05:05:37;13.68;;;7.45;;
49310;SDS011;35177;45.900;5.946;2022-10-18T05:08:03;12.32;;;7.45;;
49310;SDS011;35177;45.900;5.946;2022-10-18T05:10:28;11.38;;;6.97;;
49310;SDS011;35177;45.900;5.946;2022-10-18T05:12:54;19.73;;;7.18;;
49310;SDS011;35177;45.900;5.946;2022-10-18T05:15:19;12.70;;;6.75;;
49310;SDS011;35177;45.900;5.946;2022-10-18T05:17:45;10.60;;;6.47;;
49310;SDS011;35177;45.900;5.946;2022-10-18T05:20:11;11.27;;;6.75;;
49310;SDS011;35177;45.900;5.946;2022-10-18T05:22:36;9.43;;;5.72;;
49310;SDS011;35177;45.900;5.946;2022-10-18T05:25:02;14.73;;;6.85;;
49310;SDS011;35177;45.900;5.946;2022-10-18T05:27:28;13.45;;;6.38;;
49310;SDS011;35177;45.900;5.946;2022-10-18T05:29:53;8.15;;;5.80;;
49310;SDS011;35177;45.900;5.946;2022-10-18T05:32:19;18.40;;;8.75;;
49310;SDS011;35177;45.900;5.946;2022-10-18T05:34:45;16.55;;;8.45;;
49310;SDS011;35177;45.900;5.946;2022-10-18T05:37:10;11.25;;;6.45;;
49310;SDS011;35177;45.900;5.946;2022-10-18T05:39:36;10.57;;;6.68;;
49310;SDS011;35177;45.900;5.946;2022-10-18T05:42:02;13.43;;;6.03;;
49310;SDS011;35177;45.900;5.946;2022-10-18T05:44:28;11.07;;;5.95;;
49310;SDS011;35177;45.900;5.946;2022-10-18T05:46:54;11.52;;;6.53;;
49310;SDS011;35177;45.900;5.946;2022-10-18T05:49:19;14.85;;;6.22;;
49310;SDS011;35177;45.900;5.946;2022-10-18T05:51:45;9.05;;;6.10;;
49310;SDS011;35177;45.900;5.946;2022-10-18T05:54:10;9.60;;;6.70;;
49310;SDS011;35177;45.900;5.946;2022-10-18T05:56:36;6.25;;;5.30;;
49310;SDS011;35177;45.900;5.946;2022-10-18T05:59:02;10.90;;;6.07;;
49310;SDS011;35177;45.900;5.946;2022-10-18T06:01:31;9.13;;;5.30;;
49310;SDS011;35177;45.900;5.946;2022-10-18T06:03:57;9.52;;;5.18;;
49310;SDS011;35177;45.900;5.946;2022-10-18T06:06:22;8.82;;;5.45;;
49310;SDS011;35177;45.900;5.946;2022-10-18T06:08:48;12.95;;;5.57;;
49310;SDS011;35177;45.900;5.946;2022-10-18T06:11:15;12.40;;;6.57;;
49310;SDS011;35177;45.900;5.946;2022-10-18T06:13:43;8.88;;;7.20;;
49310;SDS011;35177;45.900;5.946;2022-10-18T06:16:10;8.93;;;6.47;;
49310;SDS011;35177;45.900;5.946;2022-10-18T06:18:36;13.00;;;7.15;;
49310;SDS011;35177;45.900;5.946;2022-10-18T06:21:02;11.13;;;7.07;;
49310;SDS011;35177;45.900;5.946;2022-10-18T06:23:28;9.95;;;6.07;;
49310;SDS011;35177;45.900;5.946;2022-10-18T06:26:01;18.73;;;7.38;;
49310;SDS011;35177;45.900;5.946;2022-10-18T06:28:28;24.73;;;8.20;;
49310;SDS011;35177;45.900;5.946;2022-10-18T06:30:55;12.57;;;7.78;;
49310;SDS011;35177;45.900;5.946;2022-10-18T06:33:21;14.85;;;7.78;;
49310;SDS011;35177;45.900;5.946;2022-10-18T06:35:58;12.48;;;7.32;;
49310;SDS011;35177;45.900;5.946;2022-10-18T06:38:26;12.82;;;7.30;;
49310;SDS011;35177;45.900;5.946;2022-10-18T06:40:53;11.75;;;7.40;;
49310;SDS011;35177;45.900;5.946;2022-10-18T06:43:19;21.00;;;8.73;;
49310;SDS011;35177;45.900;5.946;2022-10-18T06:45:45;18.77;;;8.95;;
49310;SDS011;35177;45.900;5.946;2022-10-18T06:48:10;14.52;;;9.38;;
49310;SDS011;35177;45.900;5.946;2022-10-18T06:50:36;24.25;;;9.73;;
49310;SDS011;35177;45.900;5.946;2022-10-18T06:53:02;10.98;;;8.60;;
49310;SDS011;35177;45.900;5.946;2022-10-18T06:55:30;17.00;;;7.97;;
49310;SDS011;35177;45.900;5.946;2022-10-18T06:57:56;14.82;;;7.47;;
49310;SDS011;35177;45.900;5.946;2022-10-18T07:00:21;14.55;;;7.18;;
49310;SDS011;35177;45.900;5.946;2022-10-18T07:02:47;12.60;;;7.03;;
49310;SDS011;35177;45.900;5.946;2022-10-18T07:05:13;14.60;;;6.68;;
49310;SDS011;35177;45.900;5.946;2022-10-18T07:07:38;10.00;;;7.28;;
49310;SDS011;35177;45.900;5.946;2022-10-18T07:10:04;17.63;;;6.38;;
49310;SDS011;35177;45.900;5.946;2022-10-18T07:12:30;19.60;;;6.57;;
49310;SDS011;35177;45.900;5.946;2022-10-18T07:14:56;17.42;;;6.85;;
49310;SDS011;35177;45.900;5.946;2022-10-18T07:17:22;7.88;;;5.88;;
49310;SDS011;35177;45.900;5.946;2022-10-18T07:19:47;10.73;;;6.78;;
49310;SDS011;35177;45.900;5.946;2022-10-18T07:22:13;12.18;;;6.53;;
49310;SDS011;35177;45.900;5.946;2022-10-18T07:24:38;12.73;;;6.63;;
49310;SDS011;35177;45.900;5.946;2022-10-18T07:27:04;9.80;;;6.30;;
49310;SDS011;35177;45.900;5.946;2022-10-18T07:29:29;14.50;;;7.20;;
49310;SDS011;35177;45.900;5.946;2022-10-18T07:31:55;20.05;;;8.38;;
49310;SDS011;35177;45.900;5.946;2022-10-18T07:34:21;11.20;;;7.97;;
49310;SDS011;35177;45.900;5.946;2022-10-18T07:36:46;14.60;;;9.07;;
49310;SDS011;35177;45.900;5.946;2022-10-18T07:39:12;13.23;;;7.85;;
49310;SDS011;35177;45.900;5.946;2022-10-18T07:41:37;11.10;;;8.52;;
49310;SDS011;35177;45.900;5.946;2022-10-18T07:44:03;17.20;;;7.43;;
49310;SDS011;35177;45.900;5.946;2022-10-18T07:46:29;16.17;;;7.45;;
49310;SDS011;35177;45.900;5.946;2022-10-18T07:48:55;7.30;;;6.57;;
49310;SDS011;35177;45.900;5.946;2022-10-18T07:51:22;13.15;;;6.43;;
49310;SDS011;35177;45.900;5.946;2022-10-18T07:53:48;10.50;;;7.35;;
49310;SDS011;35177;45.900;5.946;2022-10-18T07:56:14;12.40;;;8.65;;
49310;SDS011;35177;45.900;5.946;2022-10-18T07:58:44;11.65;;;8.32;;
49310;SDS011;35177;45.900;5.946;2022-10-18T08:01:11;17.15;;;8.30;;
49310;SDS011;35177;45.900;5.946;2022-10-18T08:03:38;18.05;;;8.05;;
49310;SDS011;35177;45.900;5.946;2022-10-18T08:06:05;11.68;;;7.57;;
49310;SDS011;35177;45.900;5.946;2022-10-18T08:08:33;10.68;;;7.95;;
49310;SDS011;35177;45.900;5.946;2022-10-18T08:11:09;10.98;;;8.40;;
49310;SDS011;35177;45.900;5.946;2022-10-18T08:13:36;16.40;;;8.10;;
49310;SDS011;35177;45.900;5.946;2022-10-18T08:16:03;13.23;;;8.15;;
49310;SDS011;35177;45.900;5.946;2022-10-18T08:18:30;17.90;;;7.63;;
49310;SDS011;35177;45.900;5.946;2022-10-18T08:20:58;16.90;;;8.75;;
49310;SDS011;35177;45.900;5.946;2022-10-18T08:23:24;15.27;;;8.75;;
49310;SDS011;35177;45.900;5.946;2022-10-18T08:25:50;9.68;;;7.28;;
49310;SDS011;35177;45.900;5.946;2022-10-18T08:28:15;15.80;;;7.18;;
49310;SDS011;35177;45.900;5.946;2022-10-18T08:30:41;11.45;;;7.07;;
49310;SDS011;35177;45.900;5.946;2022-10-18T08:33:07;14.60;;;7.00;;
49310;SDS011;35177;45.900;5.946;2022-10-18T08:35:33;25.00;;;7.82;;
49310;SDS011;35177;45.900;5.946;2022-10-18T08:37:58;12.02;;;8.23;;
49310;SDS011;35177;45.900;5.946;2022-10-18T08:40:24;9.18;;;7.05;;
49310;SDS011;35177;45.900;5.946;2022-10-18T08:45:41;14.90;;;6.97;;
49310;SDS011;35177;45.900;5.946;2022-10-18T08:48:42;11.98;;;7.10;;
49310;SDS011;35177;45.900;5.946;2022-10-18T08:51:03;11.40;;;6.90;;
49310;SDS011;35177;45.900;5.946;2022-10-18T08:53:33;14.45;;;6.75;;
49310;SDS011;35177;45.900;5.946;2022-10-18T08:56:15;12.18;;;6.40;;
49310;SDS011;35177;45.900;5.946;2022-10-18T08:58:45;10.43;;;6.32;;
49310;SDS011;35177;45.900;5.946;2022-10-18T09:01:34;13.25;;;5.55;;
49310;SDS011;35177;45.900;5.946;2022-10-18T09:12:58;7.45;;;4.95;;
49310;SDS011;35177;45.900;5.946;2022-10-18T09:26:15;7.10;;;4.70;;
49310;SDS011;35177;45.900;5.946;2022-10-18T09:29:00;9.93;;;4.65;;
49310;SDS011;35177;45.900;5.946;2022-10-18T09:31:44;11.98;;;4.50;;
49310;SDS011;35177;45.900;5.946;2022-10-18T09:34:18;16.73;;;4.70;;
49310;SDS011;35177;45.900;5.946;2022-10-18T09:37:03;6.30;;;3.95;;
49310;SDS011;35177;45.900;5.946;2022-10-18T09:39:35;7.53;;;3.80;;
49310;SDS011;35177;45.900;5.946;2022-10-18T09:42:03;11.30;;;3.80;;
49310;SDS011;35177;45.900;5.946;2022-10-18T09:44:40;6.77;;;4.10;;
49310;SDS011;35177;45.900;5.946;2022-10-18T09:47:12;8.90;;;4.15;;
49310;SDS011;35177;45.900;5.946;2022-10-18T09:49:46;9.05;;;4.45;;
49310;SDS011;35177;45.900;5.946;2022-10-18T09:52:19;8.32;;;4.43;;
49310;SDS011;35177;45.900;5.946;2022-10-18T09:54:54;11.65;;;4.63;;
49310;SDS011;35177;45.900;5.946;2022-10-18T10:00:13;7.95;;;3.85;;
49310;SDS011;35177;45.900;5.946;2022-10-18T10:05:16;9.77;;;4.07;;
49310;SDS011;35177;45.900;5.946;2022-10-18T10:07:44;8.40;;;4.47;;
49310;SDS011;35177;45.900;5.946;2022-10-18T10:10:21;8.18;;;4.35;;
49310;SDS011;35177;45.900;5.946;2022-10-18T10:15:27;9.73;;;4.05;;
49310;SDS011;35177;45.900;5.946;2022-10-18T10:17:54;10.20;;;3.80;;
49310;SDS011;35177;45.900;5.946;2022-10-18T10:20:22;9.05;;;4.18;;
49310;SDS011;35177;45.900;5.946;2022-10-18T10:22:53;7.70;;;3.88;;
49310;SDS011;35177;45.900;5.946;2022-10-18T10:25:25;14.43;;;4.22;;
49310;SDS011;35177;45.900;5.946;2022-10-18T10:27:55;6.25;;;3.60;;
49310;SDS011;35177;45.900;5.946;2022-10-18T10:30:30;10.07;;;4.05;;
49310;SDS011;35177;45.900;5.946;2022-10-18T10:32:58;10.35;;;4.03;;
49310;SDS011;35177;45.900;5.946;2022-10-18T10:35:31;5.80;;;4.30;;
49310;SDS011;35177;45.900;5.946;2022-10-18T10:37:59;6.47;;;3.33;;
49310;SDS011;35177;45.900;5.946;2022-10-18T10:40:28;8.27;;;3.85;;
49310;SDS011;35177;45.900;5.946;2022-10-18T10:43:05;7.07;;;3.60;;
49310;SDS011;35177;45.900;5.946;2022-10-18T10:48:17;10.57;;;3.60;;
49310;SDS011;35177;45.900;5.946;2022-10-18T10:50:51;9.60;;;4.07;;
49310;SDS011;35177;45.900;5.946;2022-10-18T10:53:27;15.95;;;3.83;;
49310;SDS011;35177;45.900;5.946;2022-10-18T10:55:56;12.50;;;4.40;;
49310;SDS011;35177;45.900;5.946;2022-10-18T10:58:23;9.15;;;4.05;;
49310;SDS011;35177;45.900;5.946;2022-10-18T11:00:52;9.60;;;4.35;;
49310;SDS011;35177;45.900;5.946;2022-10-18T11:03:18;14.07;;;4.45;;
49310;SDS011;35177;45.900;5.946;2022-10-18T11:05:48;9.45;;;3.85;;
49310;SDS011;35177;45.900;5.946;2022-10-18T11:08:25;6.47;;;2.78;;
49310;SDS011;35177;45.900;5.946;2022-10-18T11:13:49;8.27;;;3.40;;
49310;SDS011;35177;45.900;5.946;2022-10-18T11:16:31;10.05;;;3.22;;
49310;SDS011;35177;45.900;5.946;2022-10-18T11:19:02;5.75;;;3.63;;
49310;SDS011;35177;45.900;5.946;2022-10-18T11:21:40;4.38;;;3.35;;
49310;SDS011;35177;45.900;5.946;2022-10-18T11:24:09;6.60;;;3.65;;
49310;SDS011;35177;45.900;5.946;2022-10-18T11:30:00;5.00;;;3.08;;
49310;SDS011;35177;45.900;5.946;2022-10-18T11:35:22;8.02;;;3.65;;
49310;SDS011;35177;45.900;5.946;2022-10-18T11:51:38;8.85;;;3.60;;
49310;SDS011;35177;45.900;5.946;2022-10-18T12:05:37;6.20;;;2.90;;
49310;SDS011;35177;45.900;5.946;2022-10-18T12:08:12;6.97;;;3.28;;
49310;SDS011;35177;45.900;5.946;2022-10-18T12:10:42;5.82;;;2.55;;
49310;SDS011;35177;45.900;5.946;2022-10-18T12:13:13;3.80;;;2.55;;
49310;SDS011;35177;45.900;5.946;2022-10-18T12:15:42;3.53;;;2.60;;
49310;SDS011;35177;45.900;5.946;2022-10-18T12:18:10;4.68;;;2.95;;
49310;SDS011;35177;45.900;5.946;2022-10-18T12:20:53;5.05;;;2.72;;
49310;SDS011;35177;45.900;5.946;2022-10-18T12:26:15;6.95;;;2.78;;
49310;SDS011;35177;45.900;5.946;2022-10-18T12:33:54;2.92;;;2.65;;
49310;SDS011;35177;45.900;5.946;2022-10-18T12:39:25;3.25;;;2.30;;
49310;SDS011;35177;45.900;5.946;2022-10-18T12:41:55;5.93;;;2.17;;
49310;SDS011;35177;45.900;5.946;2022-10-18T12:46:53;6.25;;;2.65;;
49310;SDS011;35177;45.900;5.946;2022-10-18T12:49:23;3.60;;;2.35;;
49310;SDS011;35177;45.900;5.946;2022-10-18T12:51:55;5.32;;;2.20;;
49310;SDS011;35177;45.900;5.946;2022-10-18T12:54:30;3.95;;;2.30;;
49310;SDS011;35177;45.900;5.946;2022-10-18T12:57:17;6.57;;;2.30;;
49310;SDS011;35177;45.900;5.946;2022-10-18T12:59:47;3.47;;;2.40;;
49310;SDS011;35177;45.900;5.946;2022-10-18T13:02:23;3.70;;;2.10;;
49310;SDS011;35177;45.900;5.946;2022-10-18T13:04:51;5.60;;;2.30;;
49310;SDS011;35177;45.900;5.946;2022-10-18T13:07:18;5.07;;;2.40;;
49310;SDS011;35177;45.900;5.946;2022-10-18T13:12:54;2.70;;;2.20;;
49310;SDS011;35177;45.900;5.946;2022-10-18T13:15:41;3.88;;;2.20;;
49310;SDS011;35177;45.900;5.946;2022-10-18T13:21:05;3.35;;;2.00;;
49310;SDS011;35177;45.900;5.946;2022-10-18T13:32:24;7.65;;;2.60;;
49310;SDS011;35177;45.900;5.946;2022-10-18T13:34:56;8.10;;;2.28;;
49310;SDS011;35177;45.900;5.946;2022-10-18T13:37:24;4.13;;;2.30;;
49310;SDS011;35177;45.900;5.946;2022-10-18T13:40:12;3.50;;;2.35;;
49310;SDS011;35177;45.900;5.946;2022-10-18T13:42:45;4.07;;;2.30;;
49310;SDS011;35177;45.900;5.946;2022-10-18T13:47:55;3.13;;;2.47;;
49310;SDS011;35177;45.900;5.946;2022-10-18T13:50:22;5.07;;;2.38;;
49310;SDS011;35177;45.900;5.946;2022-10-18T14:05:03;4.40;;;2.60;;
49310;SDS011;35177;45.900;5.946;2022-10-18T14:07:31;3.13;;;2.28;;
49310;SDS011;35177;45.900;5.946;2022-10-18T14:09:58;9.27;;;4.07;;
49310;SDS011;35177;45.900;5.946;2022-10-18T14:12:36;6.35;;;4.05;;
49310;SDS011;35177;45.900;5.946;2022-10-18T14:23:04;6.18;;;2.28;;
49310;SDS011;35177;45.900;5.946;2022-10-18T14:25:38;7.13;;;2.53;;
49310;SDS011;35177;45.900;5.946;2022-10-18T14:30:48;6.70;;;2.28;;
49310;SDS011;35177;45.900;5.946;2022-10-18T14:33:32;5.88;;;2.53;;
49310;SDS011;35177;45.900;5.946;2022-10-18T14:36:21;8.23;;;2.60;;
49310;SDS011;35177;45.900;5.946;2022-10-18T14:43:51;2.78;;;2.22;;
49310;SDS011;35177;45.900;5.946;2022-10-18T14:48:57;4.47;;;2.85;;
49310;SDS011;35177;45.900;5.946;2022-10-18T14:51:24;26.15;;;12.32;;
49310;SDS011;35177;45.900;5.946;2022-10-18T14:53:51;8.35;;;2.42;;
49310;SDS011;35177;45.900;5.946;2022-10-18T14:56:21;10.48;;;3.92;;
49310;SDS011;35177;45.900;5.946;2022-10-18T14:58:47;12.38;;;2.40;;
49310;SDS011;35177;45.900;5.946;2022-10-18T15:01:18;7.97;;;2.30;;
49310;SDS011;35177;45.900;5.946;2022-10-18T15:03:48;7.70;;;2.00;;
49310;SDS011;35177;45.900;5.946;2022-10-18T15:08:50;9.35;;;2.50;;
49310;SDS011;35177;45.900;5.946;2022-10-18T15:11:19;7.82;;;2.70;;
49310;SDS011;35177;45.900;5.946;2022-10-18T15:13:47;7.82;;;2.92;;
49310;SDS011;35177;45.900;5.946;2022-10-18T15:16:16;3.35;;;2.17;;
49310;SDS011;35177;45.900;5.946;2022-10-18T15:19:04;9.27;;;2.67;;
49310;SDS011;35177;45.900;5.946;2022-10-18T15:21:52;5.15;;;2.85;;
49310;SDS011;35177;45.900;5.946;2022-10-18T15:24:20;9.68;;;2.42;;
49310;SDS011;35177;45.900;5.946;2022-10-18T15:26:59;10.13;;;2.50;;
49310;SDS011;35177;45.900;5.946;2022-10-18T15:29:35;8.82;;;2.88;;
49310;SDS011;35177;45.900;5.946;2022-10-18T15:32:23;5.90;;;2.42;;
49310;SDS011;35177;45.900;5.946;2022-10-18T15:34:51;10.02;;;3.40;;
49310;SDS011;35177;45.900;5.946;2022-10-18T15:37:30;9.75;;;3.58;;
49310;SDS011;35177;45.900;5.946;2022-10-18T15:42:51;9.75;;;3.45;;
49310;SDS011;35177;45.900;5.946;2022-10-18T15:47:58;6.68;;;3.15;;
49310;SDS011;35177;45.900;5.946;2022-10-18T15:55:50;3.28;;;2.70;;
49310;SDS011;35177;45.900;5.946;2022-10-18T15:58:39;10.10;;;3.38;;
49310;SDS011;35177;45.900;5.946;2022-10-18T16:01:06;4.68;;;2.88;;
49310;SDS011;35177;45.900;5.946;2022-10-18T16:03:56;9.05;;;3.20;;
49310;SDS011;35177;45.900;5.946;2022-10-18T16:06:22;5.90;;;3.03;;
49310;SDS011;35177;45.900;5.946;2022-10-18T16:08:48;7.25;;;3.28;;
49310;SDS011;35177;45.900;5.946;2022-10-18T16:11:17;6.53;;;3.10;;
49310;SDS011;35177;45.900;5.946;2022-10-18T16:13:46;8.13;;;2.97;;
49310;SDS011;35177;45.900;5.946;2022-10-18T16:16:13;6.78;;;2.90;;
49310;SDS011;35177;45.900;5.946;2022-10-18T16:18:39;5.75;;;2.83;;
49310;SDS011;35177;45.900;5.946;2022-10-18T16:21:05;7.25;;;2.95;;
49310;SDS011;35177;45.900;5.946;2022-10-18T16:23:31;8.35;;;2.78;;
49310;SDS011;35177;45.900;5.946;2022-10-18T16:25:56;12.43;;;2.80;;
49310;SDS011;35177;45.900;5.946;2022-10-18T16:28:23;7.78;;;2.42;;
49310;SDS011;35177;45.900;5.946;2022-10-18T16:30:51;5.38;;;2.50;;
49310;SDS011;35177;45.900;5.946;2022-10-18T16:33:19;11.48;;;2.50;;
49310;SDS011;35177;45.900;5.946;2022-10-18T16:35:45;6.13;;;2.85;;
49310;SDS011;35177;45.900;5.946;2022-10-18T16:38:29;8.38;;;2.78;;
49310;SDS011;35177;45.900;5.946;2022-10-18T16:40:57;6.43;;;2.60;;
49310;SDS011;35177;45.900;5.946;2022-10-18T16:43:23;9.48;;;2.85;;
49310;SDS011;35177;45.900;5.946;2022-10-18T16:45:49;2.95;;;2.20;;
49310;SDS011;35177;45.900;5.946;2022-10-18T16:48:17;10.32;;;2.45;;
49310;SDS011;35177;45.900;5.946;2022-10-18T16:50:44;4.50;;;2.40;;
49310;SDS011;35177;45.900;5.946;2022-10-18T16:53:10;8.40;;;2.60;;
49310;SDS011;35177;45.900;5.946;2022-10-18T16:55:37;7.75;;;2.55;;
49310;SDS011;35177;45.900;5.946;2022-10-18T16:58:04;9.48;;;3.08;;
49310;SDS011;35177;45.900;5.946;2022-10-18T17:00:30;7.57;;;2.83;;
49310;SDS011;35177;45.900;5.946;2022-10-18T17:02:56;12.20;;;5.47;;
49310;SDS011;35177;45.900;5.946;2022-10-18T17:05:21;5.72;;;2.88;;
49310;SDS011;35177;45.900;5.946;2022-10-18T17:07:47;8.07;;;3.20;;
49310;SDS011;35177;45.900;5.946;2022-10-18T17:10:18;7.35;;;3.53;;
49310;SDS011;35177;45.900;5.946;2022-10-18T17:12:45;10.13;;;3.83;;
49310;SDS011;35177;45.900;5.946;2022-10-18T17:15:10;3.83;;;2.90;;
49310;SDS011;35177;45.900;5.946;2022-10-18T17:17:37;10.20;;;3.60;;
49310;SDS011;35177;45.900;5.946;2022-10-18T17:20:04;10.05;;;3.55;;
49310;SDS011;35177;45.900;5.946;2022-10-18T17:22:30;5.75;;;2.85;;
49310;SDS011;35177;45.900;5.946;2022-10-18T17:24:56;17.10;;;3.55;;
49310;SDS011;35177;45.900;5.946;2022-10-18T17:27:22;6.50;;;3.65;;
49310;SDS011;35177;45.900;5.946;2022-10-18T17:29:47;5.97;;;3.92;;
49310;SDS011;35177;45.900;5.946;2022-10-18T17:32:13;7.38;;;3.70;;
49310;SDS011;35177;45.900;5.946;2022-10-18T17:34:39;10.30;;;4.10;;
49310;SDS011;35177;45.900;5.946;2022-10-18T17:37:04;10.65;;;4.15;;